createdAt,value
2024-04-09T00:01:38.700Z,18.30
2024-04-09T00:04:06.710Z,18.30
2024-04-09T00:06:33.955Z,18.30
2024-04-09T00:09:07.404Z,18.20
2024-04-09T00:11:34.681Z,18.20
2024-04-09T00:14:05.677Z,18.20
2024-04-09T00:16:35.266Z,18.20
2024-04-09T00:19:02.947Z,18.10
2024-04-09T00:21:31.122Z,18.10
2024-04-09T00:23:59.708Z,18.00
2024-04-09T00:26:29.748Z,17.90
2024-04-09T00:28:56.824Z,17.90
2024-04-09T00:31:26.199Z,17.80
2024-04-09T00:33:53.661Z,17.80
2024-04-09T00:36:21.346Z,17.80
2024-04-09T00:38:49.088Z,17.80
2024-04-09T00:41:19.159Z,17.80
2024-04-09T00:43:46.939Z,17.70
2024-04-09T00:46:14.924Z,17.70
2024-04-09T00:48:43.336Z,17.70
2024-04-09T00:51:13.554Z,17.70
2024-04-09T00:53:44.362Z,17.70
2024-04-09T00:56:12.601Z,17.60
2024-04-09T00:58:40.417Z,17.50
2024-04-09T01:01:07.893Z,17.50
2024-04-09T01:03:37.130Z,17.40
2024-04-09T01:06:10.497Z,17.30
2024-04-09T01:08:37.681Z,17.20
2024-04-09T01:11:08.970Z,17.20
2024-04-09T01:13:39.590Z,17.10
2024-04-09T01:16:06.972Z,17.10
2024-04-09T01:18:34.062Z,17.10
2024-04-09T01:21:01.256Z,17.10
2024-04-09T01:23:28.206Z,17.00
2024-04-09T01:25:55.159Z,17.00
2024-04-09T01:28:22.066Z,17.00
2024-04-09T01:30:52.395Z,17.00
2024-04-09T01:33:19.721Z,16.90
2024-04-09T01:35:48.047Z,16.90
2024-04-09T01:38:15.143Z,16.90
2024-04-09T01:40:42.071Z,16.90
2024-04-09T01:43:08.986Z,16.90
2024-04-09T01:45:36.191Z,16.90
2024-04-09T01:48:03.377Z,16.90
2024-04-09T01:50:30.405Z,16.90
2024-04-09T01:52:57.379Z,16.90
2024-04-09T01:55:24.401Z,16.90
2024-04-09T01:57:51.826Z,16.90
2024-04-09T02:00:21.799Z,16.90
2024-04-09T02:02:53.883Z,17.00
2024-04-09T02:05:22.048Z,17.00
2024-04-09T02:07:49.787Z,17.00
2024-04-09T02:10:16.901Z,17.10
2024-04-09T02:12:44.403Z,17.10
2024-04-09T02:15:15.780Z,17.10
2024-04-09T02:17:42.859Z,17.00
2024-04-09T02:20:11.643Z,17.00
2024-04-09T02:22:39.117Z,16.90
2024-04-09T02:25:06.575Z,16.90
2024-04-09T02:27:34.282Z,16.90
2024-04-09T02:30:04.321Z,16.90
2024-04-09T02:32:33.156Z,16.80
2024-04-09T02:35:00.228Z,16.70
2024-04-09T02:37:27.385Z,16.70
2024-04-09T02:39:54.338Z,16.60
2024-04-09T02:42:22.025Z,16.60
2024-04-09T02:44:49.206Z,16.50
2024-04-09T02:47:16.567Z,16.50
2024-04-09T02:49:45.480Z,16.50
2024-04-09T02:52:12.937Z,16.50
2024-04-09T02:54:42.861Z,16.40
2024-04-09T02:57:11.882Z,16.40
2024-04-09T02:59:40.572Z,16.40
2024-04-09T03:02:07.724Z,16.40
2024-04-09T03:04:34.915Z,16.40
2024-04-09T03:07:01.871Z,16.30
2024-04-09T03:09:29.463Z,16.30
2024-04-09T03:11:58.825Z,16.30
2024-04-09T03:14:26.438Z,16.30
2024-04-09T03:16:53.449Z,16.30
2024-04-09T03:19:20.381Z,16.30
2024-04-09T03:21:47.296Z,16.40
2024-04-09T03:24:14.273Z,16.40
2024-04-09T03:26:41.237Z,16.40
2024-04-09T03:29:08.304Z,16.40
2024-04-09T03:31:35.439Z,16.40
2024-04-09T03:34:02.530Z,16.50
2024-04-09T03:36:29.742Z,16.50
2024-04-09T03:38:56.736Z,16.50
2024-04-09T03:41:23.762Z,16.40
2024-04-09T03:43:51.129Z,16.40
2024-04-09T03:46:18.103Z,16.40
2024-04-09T03:48:47.042Z,16.40
2024-04-09T03:51:16.365Z,16.40
2024-04-09T03:53:45.953Z,16.40
2024-04-09T03:56:13.332Z,16.40
2024-04-09T03:58:45.584Z,16.40
2024-04-09T04:01:13.766Z,16.40
2024-04-09T04:03:43.422Z,16.40
2024-04-09T04:06:10.919Z,16.30
2024-04-09T04:08:39.911Z,16.30
2024-04-09T04:11:09.477Z,16.30
2024-04-09T04:13:37.860Z,16.30
2024-04-09T04:16:05.830Z,16.30
2024-04-09T04:18:36.450Z,16.20
2024-04-09T04:21:06.327Z,16.20
2024-04-09T04:23:35.267Z,16.20
2024-04-09T04:26:04.537Z,16.10
2024-04-09T04:28:32.786Z,16.10
2024-04-09T04:31:00.693Z,16.10
2024-04-09T04:33:28.784Z,16.00
2024-04-09T04:35:56.025Z,15.90
2024-04-09T04:38:23.664Z,15.80
2024-04-09T04:40:53.753Z,15.80
2024-04-09T04:43:20.920Z,15.80
2024-04-09T04:45:48.607Z,15.70
2024-04-09T04:48:18.079Z,15.70
2024-04-09T04:50:47.919Z,15.60
2024-04-09T04:53:15.346Z,15.50
2024-04-09T04:55:42.439Z,15.40
2024-04-09T04:58:09.564Z,15.20
2024-04-09T05:00:43.203Z,15.10
2024-04-09T05:03:11.215Z,15.00
2024-04-09T05:05:38.839Z,14.90
2024-04-09T05:08:06.186Z,14.80
2024-04-09T05:10:33.662Z,14.80
2024-04-09T05:13:01.359Z,14.80
2024-04-09T05:15:30.077Z,14.70
2024-04-09T05:17:58.744Z,14.60
2024-04-09T05:20:30.233Z,14.50
2024-04-09T05:22:58.176Z,14.50
2024-04-09T05:25:28.538Z,14.40
2024-04-09T05:27:56.352Z,14.40
2024-04-09T05:30:23.818Z,14.40
2024-04-09T05:32:50.927Z,14.40
2024-04-09T05:35:21.169Z,14.30
2024-04-09T05:37:48.685Z,14.30
2024-04-09T05:40:16.074Z,14.20
2024-04-09T05:42:45.910Z,14.20
2024-04-09T05:45:15.775Z,14.20
2024-04-09T05:47:43.157Z,14.20
2024-04-09T05:50:10.392Z,14.20
2024-04-09T05:52:37.773Z,14.20
2024-04-09T05:55:06.925Z,14.20
2024-04-09T05:57:43.491Z,14.20
2024-04-09T06:00:15.992Z,14.20
2024-04-09T06:02:46.985Z,14.30
2024-04-09T06:05:17.377Z,14.30
2024-04-09T06:07:46.476Z,14.40
2024-04-09T06:10:16.490Z,14.40
2024-04-09T06:12:43.980Z,14.50
2024-04-09T06:15:11.449Z,14.60
2024-04-09T06:17:38.603Z,14.70
2024-04-09T06:20:06.592Z,14.90
2024-04-09T06:22:33.984Z,15.00
2024-04-09T06:25:01.340Z,15.10
2024-04-09T06:27:28.501Z,15.10
2024-04-09T06:29:55.751Z,15.10
2024-04-09T06:32:25.970Z,15.10
2024-04-09T06:34:52.974Z,15.20
2024-04-09T06:37:20.163Z,15.20
2024-04-09T06:39:47.877Z,15.20
2024-04-09T06:42:15.032Z,15.20
2024-04-09T06:44:42.061Z,15.20
2024-04-09T06:47:09.127Z,15.20
2024-04-09T06:49:36.313Z,15.20
2024-04-09T06:52:03.791Z,15.20
2024-04-09T06:54:31.286Z,15.10
2024-04-09T06:56:58.396Z,15.10
2024-04-09T06:59:27.730Z,15.00
2024-04-09T07:01:57.618Z,14.90
2024-04-09T07:04:27.395Z,14.90
2024-04-09T07:06:55.429Z,14.90
2024-04-09T07:09:23.606Z,15.00
2024-04-09T07:11:51.705Z,15.00
2024-04-09T07:14:18.757Z,15.10
2024-04-09T07:16:56.552Z,15.10
2024-04-09T07:19:23.891Z,15.20
2024-04-09T07:21:51.035Z,15.20
2024-04-09T07:24:18.051Z,15.20
2024-04-09T07:26:45.079Z,15.20
2024-04-09T07:29:14.163Z,15.20
2024-04-09T07:31:41.945Z,15.20
2024-04-09T07:34:09.024Z,15.10
2024-04-09T07:36:36.113Z,15.10
2024-04-09T07:39:04.406Z,15.00
2024-04-09T07:41:31.471Z,14.90
2024-04-09T07:43:58.518Z,14.80
2024-04-09T07:46:25.746Z,14.90
2024-04-09T07:48:53.310Z,15.00
2024-04-09T07:51:20.648Z,15.10
2024-04-09T07:53:47.657Z,15.10
2024-04-09T07:56:14.711Z,15.20
2024-04-09T07:58:41.662Z,15.30
2024-04-09T08:01:08.819Z,15.30
2024-04-09T08:03:36.720Z,15.50
2024-04-09T08:06:05.584Z,15.60
2024-04-09T08:08:38.312Z,15.50
2024-04-09T08:11:12.786Z,15.50
2024-04-09T08:13:40.164Z,15.50
2024-04-09T08:16:07.692Z,15.50
2024-04-09T08:18:35.288Z,15.50
2024-04-09T08:21:03.583Z,15.50
2024-04-09T08:23:31.917Z,15.50
2024-04-09T08:26:01.861Z,15.60
2024-04-09T08:28:29.458Z,15.60
2024-04-09T08:30:56.596Z,15.70
2024-04-09T08:33:23.861Z,15.70
2024-04-09T08:35:51.677Z,15.70
2024-04-09T08:38:19.292Z,15.60
2024-04-09T08:40:46.519Z,15.60
2024-04-09T08:43:16.946Z,15.60
2024-04-09T08:45:45.528Z,15.80
2024-04-09T08:48:16.623Z,15.90
2024-04-09T08:50:54.403Z,15.90
2024-04-09T08:53:24.693Z,15.90
2024-04-09T08:55:52.583Z,15.90
2024-04-09T08:58:19.607Z,15.80
2024-04-09T09:00:47.768Z,15.90
2024-04-09T09:03:16.280Z,16.00
2024-04-09T09:05:43.414Z,16.10
2024-04-09T09:08:10.525Z,16.30
2024-04-09T09:10:37.652Z,16.50
2024-04-09T09:13:05.847Z,16.70
2024-04-09T09:15:33.688Z,16.90
2024-04-09T09:18:00.924Z,16.90
2024-04-09T09:20:28.210Z,16.90
2024-04-09T09:22:57.919Z,16.80
2024-04-09T09:25:27.112Z,16.80
2024-04-09T09:28:10.279Z,16.90
2024-04-09T09:30:44.762Z,16.90
2024-04-09T09:33:32.224Z,16.90
2024-04-09T09:36:00.768Z,17.00
2024-04-09T09:38:28.210Z,17.30
2024-04-09T09:40:55.809Z,17.30
2024-04-09T09:43:24.072Z,17.20
2024-04-09T09:45:53.743Z,17.00
2024-04-09T09:48:22.755Z,17.00
2024-04-09T09:50:52.773Z,17.10
2024-04-09T09:53:21.334Z,17.10
2024-04-09T09:55:52.693Z,17.00
2024-04-09T09:58:26.769Z,17.00
2024-04-09T10:00:55.071Z,17.10
2024-04-09T10:03:23.555Z,17.20
2024-04-09T10:05:50.986Z,17.40
2024-04-09T10:08:29.101Z,17.40
2024-04-09T10:10:56.629Z,17.50
2024-04-09T10:13:29.374Z,17.60
2024-04-09T10:15:58.287Z,17.60
2024-04-09T10:18:35.169Z,17.40
2024-04-09T10:21:04.592Z,17.40
2024-04-09T10:23:42.580Z,17.30
2024-04-09T10:26:12.707Z,17.40
2024-04-09T10:28:39.905Z,17.50
2024-04-09T10:31:11.589Z,17.50
2024-04-09T10:33:40.713Z,17.40
2024-04-09T10:36:10.188Z,17.40
2024-04-09T10:38:43.967Z,17.50
2024-04-09T10:41:13.467Z,17.60
2024-04-09T10:43:41.023Z,17.60
2024-04-09T10:46:14.051Z,17.70
2024-04-09T10:48:43.925Z,17.80
2024-04-09T10:51:12.255Z,17.80
2024-04-09T10:53:39.765Z,17.70
2024-04-09T10:56:07.210Z,17.70
2024-04-09T10:58:39.235Z,17.60
2024-04-09T11:01:07.555Z,17.70
2024-04-09T11:03:36.009Z,17.60
2024-04-09T11:06:03.456Z,17.60
2024-04-09T11:08:33.051Z,17.50
2024-04-09T11:11:02.384Z,17.40
2024-04-09T11:13:31.528Z,17.20
2024-04-09T11:15:59.481Z,17.10
2024-04-09T11:18:27.098Z,17.10
2024-04-09T11:20:58.895Z,17.00
2024-04-09T11:23:26.542Z,17.00
2024-04-09T11:25:55.722Z,16.90
2024-04-09T11:28:24.073Z,16.90
2024-04-09T11:30:55.781Z,16.80
2024-04-09T11:33:23.733Z,16.80
2024-04-09T11:35:56.358Z,16.90
2024-04-09T11:38:23.686Z,17.00
2024-04-09T11:40:51.587Z,17.20
2024-04-09T11:43:21.751Z,17.40
2024-04-09T11:45:52.050Z,17.50
2024-04-09T11:48:22.489Z,17.50
2024-04-09T11:50:49.706Z,17.50
2024-04-09T11:53:20.862Z,17.40
2024-04-09T11:55:50.930Z,17.40
2024-04-09T11:58:18.427Z,17.30
2024-04-09T12:00:45.689Z,17.20
2024-04-09T12:03:13.228Z,17.20
2024-04-09T12:05:40.545Z,17.00
2024-04-09T12:08:07.783Z,17.00
2024-04-09T12:10:35.007Z,16.90
2024-04-09T12:13:02.181Z,16.90
2024-04-09T12:15:30.187Z,16.70
2024-04-09T12:17:59.024Z,16.70
2024-04-09T12:20:26.460Z,16.60
2024-04-09T12:22:53.811Z,16.60
2024-04-09T12:25:20.905Z,16.60
2024-04-09T12:27:48.124Z,16.60
2024-04-09T12:30:16.982Z,16.60
2024-04-09T12:32:44.522Z,16.60
2024-04-09T12:35:12.495Z,16.50
2024-04-09T12:37:39.674Z,16.50
2024-04-09T12:40:07.300Z,16.50
2024-04-09T12:42:34.568Z,16.50
2024-04-09T12:45:01.832Z,16.50
2024-04-09T12:47:29.034Z,16.60
2024-04-09T12:49:56.303Z,16.60
2024-04-09T12:52:23.434Z,16.60
2024-04-09T12:54:50.566Z,16.70
2024-04-09T12:57:17.785Z,16.70
2024-04-09T12:59:59.109Z,16.60
2024-04-09T13:02:32.628Z,16.60
2024-04-09T13:05:01.041Z,16.60
2024-04-09T13:07:28.615Z,16.60
2024-04-09T13:09:57.365Z,16.40
2024-04-09T13:12:25.675Z,16.40
2024-04-09T13:17:22.993Z,16.60
2024-04-09T13:19:51.550Z,16.90
2024-04-09T13:22:18.689Z,17.10
2024-04-09T13:24:45.778Z,17.30
2024-04-09T13:27:12.978Z,17.40
2024-04-09T13:29:40.103Z,17.40
2024-04-09T13:32:07.637Z,17.30
2024-04-09T13:34:34.689Z,17.20
2024-04-09T13:37:01.749Z,17.10
2024-04-09T13:39:28.712Z,17.20
2024-04-09T13:41:55.986Z,17.20
2024-04-09T13:44:23.061Z,17.20
2024-04-09T13:46:51.392Z,17.20
2024-04-09T13:49:19.970Z,17.10
2024-04-09T13:51:47.292Z,16.90
2024-04-09T13:54:14.368Z,16.70
2024-04-09T13:56:44.138Z,16.60
2024-04-09T13:59:12.096Z,16.50
2024-04-09T14:01:39.290Z,16.50
2024-04-09T14:04:07.086Z,16.50
2024-04-09T14:06:34.395Z,16.40
2024-04-09T14:09:01.329Z,16.20
2024-04-09T14:11:29.613Z,15.90
2024-04-09T14:13:58.382Z,15.70
2024-04-09T14:16:25.865Z,15.40
2024-04-09T14:18:53.603Z,15.30
2024-04-09T14:21:20.879Z,15.10
2024-04-09T14:23:48.198Z,15.00
2024-04-09T14:26:15.392Z,14.60
2024-04-09T14:28:43.925Z,14.10
2024-04-09T14:31:16.476Z,13.80
2024-04-09T14:33:48.426Z,13.80
2024-04-09T14:36:15.591Z,13.90
2024-04-09T14:38:42.967Z,14.00
2024-04-09T14:41:14.974Z,14.00
2024-04-09T14:43:46.758Z,13.90
2024-04-09T14:46:20.341Z,13.90
2024-04-09T14:48:49.836Z,13.90
2024-04-09T14:51:19.075Z,13.80
2024-04-09T14:53:46.302Z,13.80
2024-04-09T14:56:13.313Z,13.70
2024-04-09T14:58:40.356Z,13.60
2024-04-09T15:01:07.832Z,13.60
2024-04-09T15:03:35.222Z,13.50
2024-04-09T15:06:02.361Z,13.60
2024-04-09T15:08:31.269Z,13.70
2024-04-09T15:11:08.620Z,13.80
2024-04-09T15:13:35.659Z,13.90
2024-04-09T15:16:02.877Z,14.10
2024-04-09T15:18:29.983Z,14.20
2024-04-09T15:20:57.004Z,14.20
2024-04-09T15:23:24.138Z,14.30
2024-04-09T15:25:55.592Z,14.20
2024-04-09T15:28:22.736Z,14.20
2024-04-09T15:30:53.656Z,14.10
2024-04-09T15:33:21.678Z,14.20
2024-04-09T15:35:55.898Z,14.40
2024-04-09T15:38:23.632Z,14.60
2024-04-09T15:40:54.432Z,14.60
2024-04-09T15:43:21.871Z,14.60
2024-04-09T15:45:49.526Z,14.70
2024-04-09T15:48:18.721Z,14.70
2024-04-09T15:50:46.148Z,14.70
2024-04-09T15:53:13.166Z,14.60
2024-04-09T15:55:40.322Z,14.70
2024-04-09T15:58:07.278Z,14.70
2024-04-09T16:00:35.793Z,14.60
2024-04-09T16:03:03.044Z,14.50
2024-04-09T16:05:31.998Z,14.50
2024-04-09T16:07:59.303Z,14.40
2024-04-09T16:10:26.905Z,14.20
2024-04-09T16:12:53.928Z,14.10
2024-04-09T16:15:20.939Z,14.10
2024-04-09T16:17:52.536Z,14.20
2024-04-09T16:20:19.900Z,14.40
2024-04-09T16:22:46.961Z,14.30
2024-04-09T16:25:15.453Z,14.30
2024-04-09T16:27:42.543Z,14.30
2024-04-09T16:30:11.800Z,14.50
2024-04-09T16:32:41.382Z,14.50
2024-04-09T16:35:09.825Z,14.50
2024-04-09T16:37:37.071Z,14.50
2024-04-09T16:40:05.717Z,14.50
2024-04-09T16:42:32.825Z,14.40
2024-04-09T16:45:04.449Z,14.20
2024-04-09T16:47:32.049Z,14.10
2024-04-09T16:49:59.104Z,14.00
2024-04-09T16:52:26.437Z,13.90
2024-04-09T16:54:53.462Z,13.70
2024-04-09T16:57:29.836Z,13.40
2024-04-09T17:00:05.416Z,13.10
2024-04-09T17:02:32.577Z,12.90
2024-04-09T21:30:59.180Z,13.10
2024-04-09T21:33:26.795Z,13.20
2024-04-09T21:35:55.810Z,13.20
2024-04-09T21:38:23.171Z,13.20
2024-04-09T21:40:50.418Z,13.30
2024-04-09T21:43:17.441Z,13.30
2024-04-09T21:45:47.406Z,13.30
2024-04-09T21:48:14.562Z,13.30
2024-04-09T21:50:41.778Z,13.30
2024-04-09T21:53:08.851Z,13.40
2024-04-09T21:55:35.866Z,13.40
2024-04-09T21:58:04.307Z,13.40
2024-04-09T22:00:39.030Z,13.40
2024-04-09T22:03:06.338Z,13.40
2024-04-09T22:05:33.651Z,13.40
2024-04-09T22:08:00.788Z,13.30
2024-04-09T22:10:29.294Z,13.30
2024-04-09T22:13:00.280Z,13.30
2024-04-09T22:15:27.661Z,13.30
2024-04-09T22:17:54.994Z,13.30
2024-04-09T22:20:22.900Z,13.20
2024-04-09T22:22:50.133Z,13.20
2024-04-09T22:25:17.652Z,13.20
2024-04-09T22:27:47.985Z,13.30
2024-04-09T22:30:14.997Z,13.30
2024-04-09T22:32:43.938Z,13.30
2024-04-09T22:35:11.113Z,13.30
2024-04-09T22:37:38.051Z,13.30
2024-04-09T22:40:05.914Z,13.30
2024-04-09T22:42:33.842Z,13.20
2024-04-09T22:45:00.860Z,13.20
2024-04-09T22:47:31.277Z,13.20
2024-04-09T22:49:58.594Z,13.10
2024-04-09T22:52:27.964Z,13.10
2024-04-09T22:54:55.097Z,13.10
2024-04-09T22:57:22.242Z,13.10
2024-04-09T22:59:49.465Z,13.10
2024-04-09T23:02:17.302Z,13.10
2024-04-09T23:04:44.673Z,13.10
2024-04-09T23:07:12.252Z,13.10
2024-04-09T23:09:44.635Z,13.10
2024-04-09T23:12:15.233Z,13.10
2024-04-09T23:14:43.061Z,13.10
2024-04-09T23:17:10.973Z,13.10
2024-04-09T23:19:38.095Z,13.10
2024-04-09T23:22:05.363Z,13.10
2024-04-09T23:24:32.432Z,13.10
2024-04-09T23:26:59.547Z,13.00
2024-04-09T23:29:26.645Z,13.00
2024-04-09T23:31:53.817Z,13.00
2024-04-09T23:34:20.953Z,13.00
2024-04-09T23:36:48.034Z,12.90
2024-04-09T23:39:16.278Z,12.90
2024-04-09T23:41:43.303Z,12.90
2024-04-09T23:44:10.920Z,12.80
2024-04-09T23:46:38.025Z,12.80
2024-04-09T23:49:05.082Z,12.80
2024-04-09T23:51:32.169Z,12.70
2024-04-09T23:53:59.186Z,12.70
2024-04-09T23:56:26.632Z,12.70
2024-04-09T23:58:53.704Z,12.70
